BAW129 LIRF-LIMJ
Flight info
| Callsign | BAW129 |
|---|---|
| Flight time | 0h 48m |
| Altitude | 26000 |
| Route | GILIO9G GILIO DCT ELB DCT BETEN/N0416F180 M729 IDONA IDONA1J |
| Aircraft | A35K/H-SBDE1E2E3GHIJ1J3J4J5J6M1M2P2RWXYZ/LB1D1 |
Departure
| Time | 2026-05-07 08:22 |
|---|---|
| Airport | Rome–Fiumicino Leonardo da Vinci International Airport (LIRF) |
Arrival
| Time | 2026-05-07 09:11 |
|---|---|
| Airport | Genoa Cristoforo Colombo Airport (LIMJ) |
| Time | Latitude | Longitude | Altitude | Speed | Heading |
|---|---|---|---|---|---|
| 2026-05-07 07:44 | 41.79696 | 12.24876 | 21 ft | 0 kts | 250° |
| 2026-05-07 07:49 | 41.79852 | 12.24652 | 22 ft | 0 kts | 160° |
| 2026-05-07 08:11 | 41.79863 | 12.24646 | 24 ft | 4 kts | 160° |
| 2026-05-07 08:11 | 41.79888 | 12.24634 | 24 ft | 4 kts | 160° |
| 2026-05-07 08:12 | 41.79909 | 12.24624 | 25 ft | 4 kts | 168° |
| 2026-05-07 08:12 | 41.79935 | 12.24623 | 25 ft | 4 kts | 197° |
| 2026-05-07 08:12 | 41.79956 | 12.24640 | 25 ft | 4 kts | 241° |
| 2026-05-07 08:12 | 41.79958 | 12.24644 | 25 ft | 4 kts | 250° |
| 2026-05-07 08:13 | 41.79953 | 12.24629 | 24 ft | 0 kts | 250° |
| 2026-05-07 08:15 | 41.79953 | 12.24628 | 24 ft | 0 kts | 250° |
| 2026-05-07 08:15 | 41.79949 | 12.24613 | 23 ft | 3 kts | 250° |
| 2026-05-07 08:15 | 41.79935 | 12.24562 | 22 ft | 9 kts | 250° |
| 2026-05-07 08:16 | 41.79901 | 12.24451 | 24 ft | 16 kts | 237° |
| 2026-05-07 08:16 | 41.79822 | 12.24321 | 24 ft | 21 kts | 248° |
| 2026-05-07 08:16 | 41.79770 | 12.24130 | 21 ft | 22 kts | 250° |
| 2026-05-07 08:16 | 41.79725 | 12.23968 | 23 ft | 17 kts | 250° |
| 2026-05-07 08:17 | 41.79688 | 12.23832 | 22 ft | 17 kts | 251° |
| 2026-05-07 08:17 | 41.79758 | 12.23715 | 23 ft | 19 kts | 341° |
| 2026-05-07 08:17 | 41.79849 | 12.23678 | 22 ft | 10 kts | 343° |
| 2026-05-07 08:17 | 41.79903 | 12.23657 | 23 ft | 7 kts | 344° |
| 2026-05-07 08:18 | 41.79915 | 12.23652 | 25 ft | 4 kts | 343° |
| 2026-05-07 08:18 | 41.79966 | 12.23632 | 24 ft | 11 kts | 343° |
| 2026-05-07 08:18 | 41.80053 | 12.23596 | 24 ft | 15 kts | 343° |
| 2026-05-07 08:18 | 41.80181 | 12.23542 | 24 ft | 22 kts | 342° |
| 2026-05-07 08:19 | 41.80339 | 12.23475 | 24 ft | 24 kts | 342° |
| 2026-05-07 08:19 | 41.80498 | 12.23407 | 24 ft | 24 kts | 342° |
| 2026-05-07 08:19 | 41.80664 | 12.23337 | 25 ft | 27 kts | 342° |
| 2026-05-07 08:19 | 41.80845 | 12.23259 | 25 ft | 29 kts | 342° |
| 2026-05-07 08:20 | 41.81034 | 12.23181 | 24 ft | 27 kts | 343° |
| 2026-05-07 08:20 | 41.81230 | 12.23097 | 23 ft | 31 kts | 342° |
| 2026-05-07 08:20 | 41.81397 | 12.23029 | 24 ft | 18 kts | 343° |
| 2026-05-07 08:20 | 41.81522 | 12.22949 | 24 ft | 22 kts | 309° |
| 2026-05-07 08:21 | 41.81562 | 12.22735 | 23 ft | 23 kts | 260° |
| 2026-05-07 08:21 | 41.81502 | 12.22661 | 20 ft | 9 kts | 168° |
| 2026-05-07 08:21 | 41.81481 | 12.22669 | 22 ft | 0 kts | 164° |
| 2026-05-07 08:21 | 41.81466 | 12.22675 | 22 ft | 11 kts | 164° |
| 2026-05-07 08:22 | 41.81293 | 12.22744 | 22 ft | 50 kts | 162° |
| 2026-05-07 08:22 | 41.80644 | 12.23027 | 23 ft | 144 kts | 162° |
| 2026-05-07 08:22 | 41.79473 | 12.23514 | 357 ft | 197 kts | 162° |
| 2026-05-07 08:22 | 41.78137 | 12.24063 | 1428 ft | 207 kts | 164° |
| 2026-05-07 08:23 | 41.76671 | 12.24143 | 2134 ft | 223 kts | 196° |
| 2026-05-07 08:23 | 41.75231 | 12.23156 | 2621 ft | 244 kts | 214° |
| 2026-05-07 08:23 | 41.73803 | 12.21794 | 3236 ft | 257 kts | 218° |
| 2026-05-07 08:23 | 41.72554 | 12.20068 | 4008 ft | 260 kts | 237° |
| 2026-05-07 08:24 | 41.71905 | 12.17819 | 4908 ft | 261 kts | 261° |
| 2026-05-07 08:24 | 41.72055 | 12.15402 | 5769 ft | 264 kts | 287° |
| 2026-05-07 08:24 | 41.72849 | 12.13177 | 6639 ft | 267 kts | 299° |
| 2026-05-07 08:24 | 41.73811 | 12.11033 | 7492 ft | 269 kts | 300° |
| 2026-05-07 08:25 | 41.74770 | 12.08910 | 8411 ft | 270 kts | 299° |
| 2026-05-07 08:25 | 41.75731 | 12.06751 | 9371 ft | 270 kts | 298° |
| 2026-05-07 08:25 | 41.76689 | 12.04577 | 10284 ft | 272 kts | 298° |
| 2026-05-07 08:25 | 41.77675 | 12.02317 | 10771 ft | 291 kts | 297° |
| 2026-05-07 08:26 | 41.79860 | 11.97273 | 11443 ft | 334 kts | 297° |
| 2026-05-07 08:26 | 41.81060 | 11.94503 | 11867 ft | 350 kts | 297° |
| 2026-05-07 08:26 | 41.82298 | 11.91649 | 12557 ft | 357 kts | 297° |
| 2026-05-07 08:27 | 41.83554 | 11.88752 | 13328 ft | 362 kts | 297° |
| 2026-05-07 08:27 | 41.84827 | 11.85810 | 14067 ft | 367 kts | 297° |
| 2026-05-07 08:27 | 41.86091 | 11.82818 | 14741 ft | 370 kts | 294° |
| 2026-05-07 08:27 | 41.87004 | 11.79596 | 15434 ft | 370 kts | 281° |
| 2026-05-07 08:28 | 41.87551 | 11.76263 | 16147 ft | 373 kts | 278° |
| 2026-05-07 08:28 | 41.88046 | 11.72826 | 16851 ft | 377 kts | 277° |
| 2026-05-07 08:28 | 41.88543 | 11.69360 | 17562 ft | 381 kts | 277° |
| 2026-05-07 08:28 | 41.89050 | 11.65851 | 18275 ft | 385 kts | 277° |
| 2026-05-07 08:29 | 41.89655 | 11.62329 | 18890 ft | 392 kts | 283° |
| 2026-05-07 08:29 | 41.90732 | 11.58930 | 19565 ft | 401 kts | 295° |
| 2026-05-07 08:29 | 41.92364 | 11.55837 | 20274 ft | 410 kts | 304° |
| 2026-05-07 08:29 | 41.94245 | 11.52925 | 20945 ft | 415 kts | 307° |
| 2026-05-07 08:30 | 41.96243 | 11.50092 | 21621 ft | 420 kts | 309° |
| 2026-05-07 08:30 | 41.98275 | 11.47307 | 22265 ft | 424 kts | 309° |
| 2026-05-07 08:30 | 42.00350 | 11.44474 | 22935 ft | 427 kts | 309° |
| 2026-05-07 08:30 | 42.02435 | 11.41598 | 23588 ft | 431 kts | 308° |
| 2026-05-07 08:31 | 42.04523 | 11.38683 | 24155 ft | 434 kts | 308° |
| 2026-05-07 08:31 | 42.06613 | 11.35735 | 24777 ft | 436 kts | 308° |
| 2026-05-07 08:31 | 42.08711 | 11.32756 | 25358 ft | 439 kts | 308° |
| 2026-05-07 08:31 | 42.10814 | 11.29755 | 25839 ft | 442 kts | 308° |
| 2026-05-07 08:32 | 42.12929 | 11.26734 | 26000 ft | 444 kts | 307° |
| 2026-05-07 08:32 | 42.15053 | 11.23694 | 26017 ft | 446 kts | 307° |
| 2026-05-07 08:32 | 42.17181 | 11.20648 | 26018 ft | 447 kts | 307° |
| 2026-05-07 08:32 | 42.19284 | 11.17636 | 26018 ft | 447 kts | 307° |
| 2026-05-07 08:33 | 42.21415 | 11.14583 | 26019 ft | 447 kts | 307° |
| 2026-05-07 08:33 | 42.23546 | 11.11527 | 26017 ft | 447 kts | 307° |
| 2026-05-07 08:33 | 42.25674 | 11.08471 | 26021 ft | 447 kts | 307° |
| 2026-05-07 08:33 | 42.27802 | 11.05413 | 26020 ft | 447 kts | 307° |
| 2026-05-07 08:34 | 42.29930 | 11.02350 | 26020 ft | 447 kts | 307° |
| 2026-05-07 08:34 | 42.32053 | 10.99289 | 26020 ft | 447 kts | 307° |
| 2026-05-07 08:34 | 42.34183 | 10.96218 | 26019 ft | 447 kts | 307° |
| 2026-05-07 08:34 | 42.36305 | 10.93153 | 26018 ft | 447 kts | 307° |
| 2026-05-07 08:35 | 42.38401 | 10.90130 | 26019 ft | 447 kts | 307° |
| 2026-05-07 08:35 | 42.40530 | 10.87055 | 26018 ft | 446 kts | 307° |
| 2026-05-07 08:35 | 42.42654 | 10.83980 | 26019 ft | 446 kts | 307° |
| 2026-05-07 08:35 | 42.44775 | 10.80904 | 26018 ft | 446 kts | 307° |
| 2026-05-07 08:36 | 42.46896 | 10.77825 | 26017 ft | 446 kts | 307° |
| 2026-05-07 08:36 | 42.48985 | 10.74791 | 26018 ft | 446 kts | 307° |
| 2026-05-07 08:36 | 42.51101 | 10.71714 | 26019 ft | 446 kts | 307° |
| 2026-05-07 08:36 | 42.53219 | 10.68633 | 26024 ft | 446 kts | 307° |
| 2026-05-07 08:37 | 42.55335 | 10.65551 | 26021 ft | 446 kts | 307° |
| 2026-05-07 08:37 | 42.57447 | 10.62473 | 26021 ft | 446 kts | 307° |
| 2026-05-07 08:37 | 42.59563 | 10.59383 | 26021 ft | 446 kts | 307° |
| 2026-05-07 08:37 | 42.61670 | 10.56304 | 26037 ft | 445 kts | 307° |
| 2026-05-07 08:38 | 42.63750 | 10.53263 | 26023 ft | 444 kts | 307° |
| 2026-05-07 08:38 | 42.65849 | 10.50191 | 26021 ft | 443 kts | 307° |
| 2026-05-07 08:38 | 42.67943 | 10.47122 | 26020 ft | 443 kts | 307° |
| 2026-05-07 08:38 | 42.70033 | 10.44054 | 26017 ft | 443 kts | 307° |
| 2026-05-07 08:39 | 42.72185 | 10.41049 | 26025 ft | 447 kts | 312° |
| 2026-05-07 08:39 | 42.74701 | 10.38505 | 26022 ft | 454 kts | 321° |
| 2026-05-07 08:39 | 42.77393 | 10.36244 | 26024 ft | 456 kts | 323° |
| 2026-05-07 08:39 | 42.80152 | 10.34097 | 26021 ft | 458 kts | 324° |
| 2026-05-07 08:40 | 42.82948 | 10.32004 | 26023 ft | 458 kts | 325° |
| 2026-05-07 08:40 | 42.85718 | 10.29958 | 26022 ft | 458 kts | 325° |
| 2026-05-07 08:40 | 42.88520 | 10.27887 | 26023 ft | 458 kts | 325° |
| 2026-05-07 08:40 | 42.91320 | 10.25803 | 26022 ft | 458 kts | 324° |
| 2026-05-07 08:41 | 42.94119 | 10.23704 | 26023 ft | 458 kts | 324° |
| 2026-05-07 08:41 | 42.96911 | 10.21598 | 26023 ft | 458 kts | 324° |
| 2026-05-07 08:41 | 42.99694 | 10.19489 | 26045 ft | 458 kts | 324° |
| 2026-05-07 08:41 | 43.02437 | 10.17407 | 26028 ft | 457 kts | 324° |
| 2026-05-07 08:42 | 43.05218 | 10.15292 | 25830 ft | 455 kts | 324° |
| 2026-05-07 08:42 | 43.07978 | 10.13194 | 25266 ft | 452 kts | 324° |
| 2026-05-07 08:42 | 43.10716 | 10.11110 | 24799 ft | 447 kts | 325° |
| 2026-05-07 08:42 | 43.13437 | 10.09036 | 24551 ft | 448 kts | 325° |
| 2026-05-07 08:43 | 43.16161 | 10.06955 | 24327 ft | 448 kts | 325° |
| 2026-05-07 08:43 | 43.18881 | 10.04876 | 24083 ft | 447 kts | 325° |
| 2026-05-07 08:43 | 43.21563 | 10.02825 | 23870 ft | 445 kts | 324° |
| 2026-05-07 08:43 | 43.24266 | 10.00757 | 23647 ft | 444 kts | 324° |
| 2026-05-07 08:44 | 43.26959 | 9.98694 | 23378 ft | 442 kts | 324° |
| 2026-05-07 08:44 | 43.29640 | 9.96638 | 23095 ft | 440 kts | 324° |
| 2026-05-07 08:44 | 43.32309 | 9.94590 | 22823 ft | 438 kts | 325° |
| 2026-05-07 08:44 | 43.34964 | 9.92549 | 22559 ft | 437 kts | 325° |
| 2026-05-07 08:45 | 43.37609 | 9.90514 | 22289 ft | 435 kts | 325° |
| 2026-05-07 08:45 | 43.40243 | 9.88486 | 22012 ft | 433 kts | 325° |
| 2026-05-07 08:45 | 43.42864 | 9.86466 | 21745 ft | 429 kts | 325° |
| 2026-05-07 08:45 | 43.45412 | 9.84504 | 21303 ft | 422 kts | 325° |
| 2026-05-07 08:46 | 43.47959 | 9.82539 | 20812 ft | 418 kts | 325° |
| 2026-05-07 08:46 | 43.50490 | 9.80582 | 20276 ft | 415 kts | 325° |
| 2026-05-07 08:46 | 43.52993 | 9.78644 | 19796 ft | 411 kts | 326° |
| 2026-05-07 08:46 | 43.55474 | 9.76722 | 19297 ft | 408 kts | 326° |
| 2026-05-07 08:47 | 43.57940 | 9.74813 | 18793 ft | 405 kts | 326° |
| 2026-05-07 08:47 | 43.60386 | 9.72914 | 18293 ft | 402 kts | 326° |
| 2026-05-07 08:47 | 43.62785 | 9.71049 | 17761 ft | 398 kts | 326° |
| 2026-05-07 08:47 | 43.65184 | 9.69182 | 17250 ft | 393 kts | 326° |
| 2026-05-07 08:48 | 43.67551 | 9.67339 | 16743 ft | 388 kts | 326° |
| 2026-05-07 08:48 | 43.69892 | 9.65514 | 16267 ft | 385 kts | 326° |
| 2026-05-07 08:48 | 43.72214 | 9.63702 | 15775 ft | 381 kts | 327° |
| 2026-05-07 08:48 | 43.74517 | 9.61903 | 15267 ft | 379 kts | 327° |
| 2026-05-07 08:49 | 43.76806 | 9.60115 | 14800 ft | 376 kts | 327° |
| 2026-05-07 08:49 | 43.79042 | 9.58367 | 14317 ft | 374 kts | 327° |
| 2026-05-07 08:49 | 43.81297 | 9.56602 | 13837 ft | 371 kts | 327° |
| 2026-05-07 08:49 | 43.83535 | 9.54849 | 13322 ft | 368 kts | 327° |
| 2026-05-07 08:50 | 43.85749 | 9.53114 | 12831 ft | 364 kts | 327° |
| 2026-05-07 08:50 | 43.87946 | 9.51391 | 12349 ft | 360 kts | 327° |
| 2026-05-07 08:50 | 43.90107 | 9.49697 | 12056 ft | 350 kts | 327° |
| 2026-05-07 08:50 | 43.92183 | 9.48070 | 11951 ft | 335 kts | 327° |
| 2026-05-07 08:51 | 43.94146 | 9.46529 | 11830 ft | 321 kts | 327° |
| 2026-05-07 08:51 | 43.96051 | 9.45032 | 11711 ft | 308 kts | 326° |
| 2026-05-07 08:51 | 43.97846 | 9.43520 | 11590 ft | 293 kts | 320° |
| 2026-05-07 08:51 | 43.99245 | 9.41595 | 11447 ft | 275 kts | 304° |
| 2026-05-07 08:52 | 44.00337 | 9.39490 | 11330 ft | 262 kts | 301° |
| 2026-05-07 08:52 | 44.01344 | 9.37444 | 11208 ft | 251 kts | 300° |
| 2026-05-07 08:52 | 44.02313 | 9.35472 | 11072 ft | 242 kts | 300° |
| 2026-05-07 08:52 | 44.03336 | 9.33627 | 11006 ft | 244 kts | 310° |
| 2026-05-07 08:53 | 44.04610 | 9.32082 | 10889 ft | 248 kts | 317° |
| 2026-05-07 08:53 | 44.05995 | 9.30614 | 10406 ft | 253 kts | 319° |
| 2026-05-07 08:53 | 44.07541 | 9.29390 | 9931 ft | 263 kts | 339° |
| 2026-05-07 08:53 | 44.09375 | 9.29362 | 9444 ft | 271 kts | 15° |
| 2026-05-07 08:54 | 44.10923 | 9.30783 | 9189 ft | 266 kts | 50° |
| 2026-05-07 08:54 | 44.12032 | 9.32837 | 9142 ft | 266 kts | 55° |
| 2026-05-07 08:54 | 44.13103 | 9.34945 | 9071 ft | 266 kts | 53° |
| 2026-05-07 08:54 | 44.14436 | 9.36605 | 8886 ft | 252 kts | 22° |
| 2026-05-07 08:55 | 44.16080 | 9.36930 | 8668 ft | 234 kts | 345° |
| 2026-05-07 08:55 | 44.17499 | 9.36044 | 8434 ft | 225 kts | 321° |
| 2026-05-07 08:55 | 44.18759 | 9.34747 | 8177 ft | 225 kts | 319° |
| 2026-05-07 08:55 | 44.19993 | 9.33410 | 7924 ft | 225 kts | 319° |
| 2026-05-07 08:56 | 44.21231 | 9.32078 | 7677 ft | 225 kts | 319° |
| 2026-05-07 08:56 | 44.22474 | 9.30757 | 7431 ft | 224 kts | 320° |
| 2026-05-07 08:56 | 44.23712 | 9.29441 | 7178 ft | 224 kts | 320° |
| 2026-05-07 08:56 | 44.24951 | 9.28124 | 6941 ft | 224 kts | 321° |
| 2026-05-07 08:57 | 44.26197 | 9.26801 | 6689 ft | 225 kts | 320° |
| 2026-05-07 08:57 | 44.27411 | 9.25416 | 6442 ft | 225 kts | 314° |
| 2026-05-07 08:57 | 44.28540 | 9.23936 | 6192 ft | 225 kts | 303° |
| 2026-05-07 08:57 | 44.28989 | 9.21900 | 5723 ft | 220 kts | 263° |
| 2026-05-07 08:58 | 44.28748 | 9.19815 | 5401 ft | 216 kts | 255° |
| 2026-05-07 08:58 | 44.28481 | 9.17746 | 5099 ft | 217 kts | 258° |
| 2026-05-07 08:58 | 44.28292 | 9.15659 | 5005 ft | 218 kts | 262° |
| 2026-05-07 08:58 | 44.28159 | 9.13551 | 4996 ft | 218 kts | 263° |
| 2026-05-07 08:59 | 44.28062 | 9.11464 | 4997 ft | 218 kts | 263° |
| 2026-05-07 08:59 | 44.27980 | 9.09356 | 4996 ft | 218 kts | 265° |
| 2026-05-07 08:59 | 44.27910 | 9.07247 | 4992 ft | 215 kts | 266° |
| 2026-05-07 08:59 | 44.27851 | 9.05248 | 5006 ft | 200 kts | 266° |
| 2026-05-07 09:00 | 44.27795 | 9.03327 | 4999 ft | 197 kts | 267° |
| 2026-05-07 09:00 | 44.27741 | 9.01414 | 4999 ft | 198 kts | 266° |
| 2026-05-07 09:00 | 44.27686 | 8.99494 | 4997 ft | 198 kts | 266° |
| 2026-05-07 09:00 | 44.27630 | 8.97571 | 4994 ft | 198 kts | 266° |
| 2026-05-07 09:01 | 44.27576 | 8.95652 | 4992 ft | 198 kts | 266° |
| 2026-05-07 09:01 | 44.27521 | 8.93731 | 4994 ft | 198 kts | 266° |
| 2026-05-07 09:01 | 44.27470 | 8.91832 | 4994 ft | 199 kts | 266° |
| 2026-05-07 09:01 | 44.27414 | 8.89903 | 4993 ft | 199 kts | 266° |
| 2026-05-07 09:02 | 44.27357 | 8.87975 | 4993 ft | 199 kts | 266° |
| 2026-05-07 09:02 | 44.27299 | 8.86048 | 4994 ft | 199 kts | 266° |
| 2026-05-07 09:02 | 44.27241 | 8.84126 | 4996 ft | 198 kts | 267° |
| 2026-05-07 09:02 | 44.27185 | 8.82213 | 4993 ft | 197 kts | 267° |
| 2026-05-07 09:03 | 44.27128 | 8.80299 | 4992 ft | 197 kts | 267° |
| 2026-05-07 09:03 | 44.27070 | 8.78386 | 4996 ft | 197 kts | 267° |
| 2026-05-07 09:03 | 44.27013 | 8.76479 | 4997 ft | 196 kts | 267° |
| 2026-05-07 09:03 | 44.26956 | 8.74576 | 4995 ft | 196 kts | 267° |
| 2026-05-07 09:04 | 44.26899 | 8.72698 | 4994 ft | 196 kts | 267° |
| 2026-05-07 09:04 | 44.26859 | 8.70787 | 4992 ft | 196 kts | 272° |
| 2026-05-07 09:04 | 44.27058 | 8.68922 | 4996 ft | 194 kts | 285° |
| 2026-05-07 09:04 | 44.27398 | 8.67108 | 4997 ft | 193 kts | 287° |
| 2026-05-07 09:05 | 44.27755 | 8.65303 | 4995 ft | 193 kts | 287° |
| 2026-05-07 09:05 | 44.28109 | 8.63490 | 4992 ft | 193 kts | 287° |
| 2026-05-07 09:05 | 44.28572 | 8.61744 | 4898 ft | 191 kts | 301° |
| 2026-05-07 09:05 | 44.29464 | 8.60407 | 4768 ft | 189 kts | 328° |
| 2026-05-07 09:06 | 44.30740 | 8.59833 | 4704 ft | 207 kts | 356° |
| 2026-05-07 09:06 | 44.32204 | 8.60087 | 4637 ft | 219 kts | 14° |
| 2026-05-07 09:06 | 44.33617 | 8.60632 | 4481 ft | 202 kts | 16° |
| 2026-05-07 09:06 | 44.34845 | 8.61398 | 4270 ft | 187 kts | 34° |
| 2026-05-07 09:07 | 44.35701 | 8.62672 | 4030 ft | 177 kts | 56° |
| 2026-05-07 09:07 | 44.36329 | 8.64121 | 3699 ft | 173 kts | 60° |
| 2026-05-07 09:07 | 44.36918 | 8.65582 | 3291 ft | 172 kts | 60° |
| 2026-05-07 09:07 | 44.37501 | 8.67026 | 2958 ft | 166 kts | 60° |
| 2026-05-07 09:08 | 44.38054 | 8.68385 | 2751 ft | 157 kts | 60° |
| 2026-05-07 09:08 | 44.38581 | 8.69675 | 2430 ft | 153 kts | 60° |
| 2026-05-07 09:08 | 44.39111 | 8.70963 | 2102 ft | 153 kts | 61° |
| 2026-05-07 09:08 | 44.39650 | 8.72221 | 1866 ft | 149 kts | 62° |
| 2026-05-07 09:09 | 44.40207 | 8.73436 | 1570 ft | 147 kts | 60° |
| 2026-05-07 09:09 | 44.40764 | 8.74620 | 1260 ft | 145 kts | 60° |
| 2026-05-07 09:09 | 44.41290 | 8.75803 | 1038 ft | 143 kts | 62° |
| 2026-05-07 09:09 | 44.41803 | 8.76998 | 819 ft | 143 kts | 63° |
| 2026-05-07 09:10 | 44.42212 | 8.78241 | 659 ft | 137 kts | 87° |
| 2026-05-07 09:10 | 44.42126 | 8.79535 | 547 ft | 138 kts | 112° |
| 2026-05-07 09:10 | 44.41847 | 8.80847 | 320 ft | 141 kts | 105° |
| 2026-05-07 09:10 | 44.41608 | 8.82154 | 111 ft | 136 kts | 115° |
| 2026-05-07 09:11 | 44.41349 | 8.83412 | 24 ft | 129 kts | 105° |
| 2026-05-07 09:11 | 44.41158 | 8.84378 | 18 ft | 64 kts | 104° |
| 2026-05-07 09:11 | 44.41087 | 8.84741 | 14 ft | 22 kts | 104° |
| 2026-05-07 09:11 | 44.41159 | 8.84878 | 15 ft | 18 kts | 21° |
| 2026-05-07 09:12 | 44.41260 | 8.84923 | 15 ft | 15 kts | 16° |
| 2026-05-07 09:12 | 44.41325 | 8.84959 | 19 ft | 8 kts | 41° |
| 2026-05-07 09:12 | 44.41335 | 8.85038 | 15 ft | 9 kts | 107° |
| 2026-05-07 09:12 | 44.41321 | 8.85130 | 15 ft | 9 kts | 77° |
| 2026-05-07 09:13 | 44.41365 | 8.85169 | 15 ft | 8 kts | 12° |
| 2026-05-07 09:13 | 44.41370 | 8.85171 | 15 ft | 0 kts | 12° |
| 2026-05-07 09:15 | 44.28100 | 9.12327 | 4994 ft | 218 kts | 264° |
| 2026-05-07 09:15 | 44.27998 | 9.09864 | 4616 ft | 222 kts | 263° |
| 2026-05-07 09:15 | 44.28080 | 9.11890 | 4997 ft | 218 kts | 263° |
| 2026-05-07 09:15 | 44.28096 | 9.10535 | 4992 ft | 217 kts | 246° |
| 2026-05-07 09:16 | 44.27967 | 9.08955 | 4997 ft | 211 kts | 264° |
| 2026-05-07 09:16 | 44.28080 | 9.11883 | 4995 ft | 218 kts | 263° |
| 2026-05-07 09:16 | 44.27993 | 9.09722 | 4990 ft | 217 kts | 265° |